Time;durP1;ratioP1;P1;durP2;ratioP2;P2;SDS_P1;SDS_P2;PMS_P1;PMS_P2;Temp;Humidity;BMP_temperature;BMP_pressure;BME280_temperature;BME280_humidity;BME280_pressure;Samples;Min_cycle;Max_cycle;Signal;HPM_P1;HPM_P2
2022/01/08 00:00:22;;;;;;;7.47;5.67;;;;;;;;;;5080063;28;20679;-61
2022/01/08 00:02:51;;;;;;;6.97;5.40;;;;;;;;;;5091366;27;20203;-63
2022/01/08 00:05:19;;;;;;;6.30;5.70;;;;;;;;;;5050013;28;22012;-63
2022/01/08 00:07:46;;;;;;;6.87;5.83;;;;;;;;;;5069921;28;20224;-61
2022/01/08 00:10:14;;;;;;;6.40;5.63;;;;;;;;;;5094446;27;20212;-62
2022/01/08 00:12:41;;;;;;;5.60;5.10;;;;;;;;;;5076369;28;20290;-62
2022/01/08 00:15:12;;;;;;;6.37;5.13;;;;;;;;;;5064996;28;20204;-63
2022/01/08 00:17:39;;;;;;;5.50;5.00;;;;;;;;;;5054199;28;20419;-63
2022/01/08 00:20:08;;;;;;;8.27;5.00;;;;;;;;;;5072489;28;20573;-61
2022/01/08 00:22:35;;;;;;;6.73;5.07;;;;;;;;;;5069007;28;20569;-61
2022/01/08 00:25:03;;;;;;;5.90;5.30;;;;;;;;;;5057466;28;20213;-61
2022/01/08 00:27:32;;;;;;;8.13;5.30;;;;;;;;;;5061879;28;20706;-62
2022/01/08 00:30:00;;;;;;;7.27;5.07;;;;;;;;;;5085732;28;20250;-63
2022/01/08 00:32:27;;;;;;;6.63;5.70;;;;;;;;;;5097291;27;20223;-61
2022/01/08 00:34:55;;;;;;;10.53;6.77;;;;;;;;;;5061260;28;20245;-61
2022/01/08 00:37:22;;;;;;;8.40;5.97;;;;;;;;;;5060529;28;20220;-63
2022/01/08 00:39:49;;;;;;;8.87;6.60;;;;;;;;;;5049133;28;20202;-62
2022/01/08 00:42:17;;;;;;;11.03;7.43;;;;;;;;;;5075170;28;20268;-63
2022/01/08 00:44:44;;;;;;;7.97;6.83;;;;;;;;;;5063018;28;20235;-61
2022/01/08 00:47:12;;;;;;;9.07;6.73;;;;;;;;;;5065072;28;20225;-62
2022/01/08 00:49:41;;;;;;;9.13;7.70;;;;;;;;;;5064464;28;20236;-62
2022/01/08 00:52:08;;;;;;;11.00;7.20;;;;;;;;;;5078626;28;20222;-61
2022/01/08 00:54:36;;;;;;;8.47;7.17;;;;;;;;;;5068746;28;20253;-61
2022/01/08 00:57:05;;;;;;;10.87;8.07;;;;;;;;;;5094497;27;20258;-62
2022/01/08 00:59:35;;;;;;;9.00;7.60;;;;;;;;;;5095903;27;20212;-63
2022/01/08 01:02:03;;;;;;;7.63;6.50;;;;;;;;;;5101232;27;20261;-63
2022/01/08 01:04:31;;;;;;;7.17;6.13;;;;;;;;;;5065761;28;20618;-63
2022/01/08 01:06:58;;;;;;;8.33;7.33;;;;;;;;;;5062936;28;20284;-63
2022/01/08 01:09:26;;;;;;;10.37;7.37;;;;;;;;;;5069931;28;20225;-62
2022/01/08 01:11:57;;;;;;;8.80;7.80;;;;;;;;;;5070506;28;20264;-63
2022/01/08 01:14:25;;;;;;;10.83;7.87;;;;;;;;;;5069854;28;20226;-62
2022/01/08 01:16:53;;;;;;;8.50;7.60;;;;;;;;;;5053020;28;20228;-63
2022/01/08 01:19:27;;;;;;;9.77;7.57;;;;;;;;;;5077356;28;20244;-62
2022/01/08 01:21:57;;;;;;;9.87;8.50;;;;;;;;;;5093772;28;20211;-62
2022/01/08 01:24:26;;;;;;;9.83;7.93;;;;;;;;;;5057428;28;20666;-62
2022/01/08 01:29:49;;;;;;;9.00;7.23;;;;;;;;;;5073717;28;20214;-62
2022/01/08 01:47:00;;;;;;;9.67;8.27;;;;;;;;;;5072206;28;20207;-63
2022/01/08 01:49:07;;;;;;;13.77;9.30;;;;;;;;;;5078347;28;20241;-62
2022/01/08 01:51:34;;;;;;;13.67;8.97;;;;;;;;;;5058738;28;20215;-62
2022/01/08 01:54:02;;;;;;;12.27;8.93;;;;;;;;;;5094894;28;20222;-62
2022/01/08 01:56:32;;;;;;;11.17;8.60;;;;;;;;;;5057542;28;20230;-61
2022/01/08 01:59:00;;;;;;;10.97;8.53;;;;;;;;;;5081805;28;20208;-63
2022/01/08 02:01:27;;;;;;;12.80;8.97;;;;;;;;;;5066850;28;20572;-63
2022/01/08 02:03:55;;;;;;;12.93;9.97;;;;;;;;;;5098069;28;20431;-62
2022/01/08 02:06:22;;;;;;;11.13;8.73;;;;;;;;;;5068379;28;20727;-63
2022/01/08 02:08:49;;;;;;;11.10;8.27;;;;;;;;;;5060617;28;20208;-62
2022/01/08 02:11:20;;;;;;;11.87;9.80;;;;;;;;;;5059544;28;20215;-61
2022/01/08 02:13:51;;;;;;;10.10;7.93;;;;;;;;;;5087175;28;21083;-62
2022/01/08 02:16:19;;;;;;;12.13;8.90;;;;;;;;;;5088812;27;20219;-62
2022/01/08 02:18:50;;;;;;;12.23;8.90;;;;;;;;;;5081657;28;20204;-62
2022/01/08 02:21:17;;;;;;;11.90;9.10;;;;;;;;;;5095144;27;20203;-62
2022/01/08 02:23:46;;;;;;;11.80;8.50;;;;;;;;;;5065146;28;20277;-62
2022/01/08 02:26:13;;;;;;;8.63;7.63;;;;;;;;;;5068520;28;20234;-62
2022/01/08 02:28:41;;;;;;;10.90;7.87;;;;;;;;;;5066951;28;20222;-62
2022/01/08 02:31:19;;;;;;;9.37;7.20;;;;;;;;;;5090693;27;20271;-64
2022/01/08 02:33:47;;;;;;;9.07;7.17;;;;;;;;;;5064376;28;20223;-63
2022/01/08 02:36:15;;;;;;;10.53;7.73;;;;;;;;;;5095362;27;20235;-61
2022/01/08 02:38:43;;;;;;;10.20;7.83;;;;;;;;;;5070654;28;20211;-62
2022/01/08 02:41:11;;;;;;;10.77;7.83;;;;;;;;;;5055711;28;20207;-62
2022/01/08 02:43:45;;;;;;;11.80;7.77;;;;;;;;;;5067214;28;20275;-62
2022/01/08 02:46:12;;;;;;;8.87;7.27;;;;;;;;;;5071655;28;20224;-63
2022/01/08 02:48:40;;;;;;;11.13;8.17;;;;;;;;;;5066916;28;20254;-63
2022/01/08 02:51:07;;;;;;;10.73;7.77;;;;;;;;;;5057271;28;20241;-63
2022/01/08 02:53:37;;;;;;;7.93;6.70;;;;;;;;;;5061852;28;20229;-61
2022/01/08 02:56:08;;;;;;;8.37;6.80;;;;;;;;;;5073720;28;20284;-62
2022/01/08 02:58:36;;;;;;;9.23;7.03;;;;;;;;;;5075359;28;20203;-62
2022/01/08 03:01:04;;;;;;;9.73;7.40;;;;;;;;;;5071030;28;20214;-62
2022/01/08 03:03:31;;;;;;;8.43;7.53;;;;;;;;;;5070340;28;23496;-64
2022/01/08 03:05:59;;;;;;;9.47;7.20;;;;;;;;;;5051857;28;20808;-63
2022/01/08 03:08:26;;;;;;;8.57;6.77;;;;;;;;;;5100250;27;20209;-62
2022/01/08 03:10:55;;;;;;;8.73;6.67;;;;;;;;;;5089775;27;20209;-64
2022/01/08 03:13:22;;;;;;;8.53;6.70;;;;;;;;;;5061241;28;20702;-63
2022/01/08 03:15:49;;;;;;;7.67;6.30;;;;;;;;;;5093418;28;20204;-63
2022/01/08 03:18:16;;;;;;;7.87;5.83;;;;;;;;;;5072535;28;20202;-62
2022/01/08 03:20:59;;;;;;;7.10;5.73;;;;;;;;;;5063736;28;20215;-63
2022/01/08 03:23:36;;;;;;;7.90;5.50;;;;;;;;;;5095612;28;20207;-62
2022/01/08 03:26:03;;;;;;;6.80;5.73;;;;;;;;;;5067617;28;20222;-63
2022/01/08 03:28:31;;;;;;;6.27;5.20;;;;;;;;;;5097510;27;20235;-62
2022/01/08 03:30:59;;;;;;;7.07;5.20;;;;;;;;;;5053107;28;20198;-62
2022/01/08 03:33:26;;;;;;;5.87;4.97;;;;;;;;;;5065807;28;20327;-61
2022/01/08 03:35:55;;;;;;;5.40;4.80;;;;;;;;;;5079328;28;20231;-64
2022/01/08 03:38:22;;;;;;;8.37;4.87;;;;;;;;;;5062576;28;20214;-63
2022/01/08 03:40:51;;;;;;;5.60;4.57;;;;;;;;;;5075800;28;20196;-62
2022/01/08 03:43:19;;;;;;;4.53;4.13;;;;;;;;;;5073049;28;20224;-61
2022/01/08 03:45:46;;;;;;;4.07;3.67;;;;;;;;;;5071786;28;20310;-62
2022/01/08 03:50:45;;;;;;;5.87;4.20;;;;;;;;;;5076450;28;20214;-63
2022/01/08 03:53:13;;;;;;;3.97;3.40;;;;;;;;;;5086773;27;20600;-63
2022/01/08 03:55:46;;;;;;;4.97;4.00;;;;;;;;;;5063276;28;20207;-63
2022/01/08 03:58:13;;;;;;;4.43;4.03;;;;;;;;;;5085163;27;20251;-63
2022/01/08 04:00:43;;;;;;;4.40;3.83;;;;;;;;;;5057432;28;20216;-61
2022/01/08 04:03:11;;;;;;;4.13;3.83;;;;;;;;;;5057405;28;20571;-63
2022/01/08 04:05:38;;;;;;;3.90;3.60;;;;;;;;;;5079033;28;20219;-62
2022/01/08 04:08:09;;;;;;;4.30;3.90;;;;;;;;;;5072859;28;20250;-64
2022/01/08 04:10:36;;;;;;;3.90;3.50;;;;;;;;;;5053136;28;20211;-62
2022/01/08 04:13:10;;;;;;;4.30;3.43;;;;;;;;;;5052119;28;20231;-62
2022/01/08 04:15:40;;;;;;;3.77;3.47;;;;;;;;;;5071697;28;20252;-63
2022/01/08 04:18:09;;;;;;;3.30;3.00;;;;;;;;;;5056830;28;20277;-63
2022/01/08 04:20:47;;;;;;;3.57;3.27;;;;;;;;;;5060566;28;20780;-63
2022/01/08 04:23:17;;;;;;;4.83;3.40;;;;;;;;;;5065648;28;20215;-63
2022/01/08 04:25:46;;;;;;;3.37;3.17;;;;;;;;;;5072593;28;20230;-61
2022/01/08 04:28:13;;;;;;;3.47;3.17;;;;;;;;;;5051755;28;20271;-62
2022/01/08 04:30:40;;;;;;;3.93;3.53;;;;;;;;;;5048448;28;20601;-62
2022/01/08 04:33:08;;;;;;;3.47;3.17;;;;;;;;;;5059136;28;20231;-63
2022/01/08 04:35:35;;;;;;;3.30;3.00;;;;;;;;;;5054536;28;20771;-61
2022/01/08 04:38:03;;;;;;;3.37;3.07;;;;;;;;;;5075197;28;20972;-63
2022/01/08 04:40:32;;;;;;;2.83;2.50;;;;;;;;;;5055322;28;20205;-61
2022/01/08 04:43:03;;;;;;;3.00;2.80;;;;;;;;;;5056347;28;20207;-61
2022/01/08 04:45:31;;;;;;;3.23;3.00;;;;;;;;;;5069905;28;20646;-63
2022/01/08 04:48:00;;;;;;;3.03;2.83;;;;;;;;;;5052494;28;20228;-63
2022/01/08 04:50:28;;;;;;;2.90;2.70;;;;;;;;;;5056101;28;20198;-62
2022/01/08 04:52:55;;;;;;;3.03;2.73;;;;;;;;;;5061456;28;20223;-61
2022/01/08 04:55:23;;;;;;;3.40;2.87;;;;;;;;;;5054415;28;20219;-63
2022/01/08 04:57:50;;;;;;;3.13;2.77;;;;;;;;;;5056183;28;20228;-63
2022/01/08 05:00:19;;;;;;;2.57;2.37;;;;;;;;;;5057112;28;20205;-63
2022/01/08 05:02:47;;;;;;;3.30;3.00;;;;;;;;;;5065111;28;20207;-62
2022/01/08 05:05:15;;;;;;;2.73;2.53;;;;;;;;;;5054066;28;20211;-64
2022/01/08 05:07:42;;;;;;;2.67;2.47;;;;;;;;;;5054327;28;20239;-63
2022/01/08 05:10:10;;;;;;;2.80;2.60;;;;;;;;;;5058519;28;20595;-63
2022/01/08 05:12:38;;;;;;;2.70;2.50;;;;;;;;;;5051389;28;20336;-63
2022/01/08 05:15:05;;;;;;;2.50;2.33;;;;;;;;;;5080245;28;20211;-63
2022/01/08 05:17:37;;;;;;;2.70;2.50;;;;;;;;;;5084061;28;20230;-63
2022/01/08 05:20:07;;;;;;;2.17;2.07;;;;;;;;;;5061746;28;20211;-61
2022/01/08 05:25:15;;;;;;;2.50;2.30;;;;;;;;;;5065133;28;20207;-62
2022/01/08 05:27:42;;;;;;;2.60;2.40;;;;;;;;;;5056575;28;20228;-61
2022/01/08 05:30:10;;;;;;;2.43;2.10;;;;;;;;;;5066935;28;20217;-61
2022/01/08 05:32:38;;;;;;;1.80;1.70;;;;;;;;;;5047219;28;20265;-63
2022/01/08 05:35:05;;;;;;;1.80;1.70;;;;;;;;;;5080119;28;20220;-61
2022/01/08 05:37:33;;;;;;;1.80;1.70;;;;;;;;;;5042658;28;20248;-61
2022/01/08 05:40:00;;;;;;;1.97;1.87;;;;;;;;;;5053283;28;20262;-61
2022/01/08 05:42:27;;;;;;;2.20;1.93;;;;;;;;;;5062754;28;20199;-61
2022/01/08 05:44:55;;;;;;;2.00;1.90;;;;;;;;;;5050949;28;20208;-63
2022/01/08 05:47:23;;;;;;;1.80;1.70;;;;;;;;;;5079812;27;20219;-61
2022/01/08 05:49:50;;;;;;;1.83;1.73;;;;;;;;;;5056426;28;20211;-64
2022/01/08 05:52:18;;;;;;;1.53;1.40;;;;;;;;;;5052582;28;20198;-61
2022/01/08 05:54:45;;;;;;;1.30;1.30;;;;;;;;;;5062984;28;20743;-63
2022/01/08 05:57:12;;;;;;;1.37;1.30;;;;;;;;;;5052760;28;21072;-61
2022/01/08 05:59:41;;;;;;;1.80;1.00;;;;;;;;;;5053297;28;20211;-63
2022/01/08 06:02:13;;;;;;;1.00;1.00;;;;;;;;;;5053754;28;21118;-63
2022/01/08 06:04:40;;;;;;;0.93;0.93;;;;;;;;;;5078054;27;20250;-62
2022/01/08 06:07:08;;;;;;;0.90;0.90;;;;;;;;;;5064735;28;20237;-62
2022/01/08 06:09:36;;;;;;;0.90;0.90;;;;;;;;;;5065263;28;20213;-63
2022/01/08 06:12:03;;;;;;;0.80;0.80;;;;;;;;;;5054406;28;20212;-63
2022/01/08 06:14:31;;;;;;;1.07;0.80;;;;;;;;;;5056900;28;20223;-62
2022/01/08 06:16:58;;;;;;;0.80;0.80;;;;;;;;;;5067191;28;20309;-62
2022/01/08 06:19:26;;;;;;;0.90;0.90;;;;;;;;;;5066591;28;20213;-62
2022/01/08 06:21:53;;;;;;;0.80;0.80;;;;;;;;;;5071727;28;20651;-63
2022/01/08 06:24:20;;;;;;;0.90;0.90;;;;;;;;;;5045488;28;20204;-62
2022/01/08 06:26:48;;;;;;;0.83;0.83;;;;;;;;;;5050038;28;20784;-61
2022/01/08 06:29:15;;;;;;;0.90;0.90;;;;;;;;;;5060502;28;20216;-62
2022/01/08 06:31:43;;;;;;;1.13;0.90;;;;;;;;;;5049402;28;20213;-61
2022/01/08 06:34:10;;;;;;;0.87;0.87;;;;;;;;;;5050213;28;20269;-62
2022/01/08 06:36:38;;;;;;;0.90;0.90;;;;;;;;;;5085458;27;20937;-62
2022/01/08 06:39:05;;;;;;;0.90;0.90;;;;;;;;;;5051853;28;20211;-62
2022/01/08 06:41:32;;;;;;;0.90;0.90;;;;;;;;;;5049624;28;20195;-61
2022/01/08 06:44:00;;;;;;;0.93;0.93;;;;;;;;;;5061005;28;20297;-61
2022/01/08 06:46:27;;;;;;;1.00;1.00;;;;;;;;;;5046623;28;20237;-63
2022/01/08 06:48:55;;;;;;;1.00;1.00;;;;;;;;;;5066997;28;20215;-63
2022/01/08 06:51:22;;;;;;;1.20;1.20;;;;;;;;;;5056952;28;20231;-62
2022/01/08 06:53:49;;;;;;;1.20;1.20;;;;;;;;;;5046887;28;20638;-63
2022/01/08 06:56:18;;;;;;;1.30;1.20;;;;;;;;;;5050122;28;20404;-63
2022/01/08 06:58:45;;;;;;;1.33;1.33;;;;;;;;;;5047000;28;20211;-61
2022/01/08 07:01:13;;;;;;;1.30;1.20;;;;;;;;;;5046301;28;20242;-63
2022/01/08 07:03:40;;;;;;;1.50;1.40;;;;;;;;;;5047767;28;20217;-63
2022/01/08 07:06:08;;;;;;;1.33;1.33;;;;;;;;;;5063026;28;20232;-62
2022/01/08 07:08:35;;;;;;;3.30;2.07;;;;;;;;;;5050310;28;20923;-61
2022/01/08 07:11:03;;;;;;;2.00;1.90;;;;;;;;;;5053957;28;20218;-64
2022/01/08 07:13:30;;;;;;;1.90;1.80;;;;;;;;;;5081335;27;20283;-62
2022/01/08 07:15:58;;;;;;;1.90;1.80;;;;;;;;;;5050386;28;20209;-61
2022/01/08 07:18:25;;;;;;;2.00;1.90;;;;;;;;;;5083059;27;20195;-62
2022/01/08 07:20:56;;;;;;;2.10;2.00;;;;;;;;;;5081830;27;20202;-61
2022/01/08 07:23:23;;;;;;;2.40;2.00;;;;;;;;;;5067543;28;20203;-63
2022/01/08 07:25:50;;;;;;;2.00;1.87;;;;;;;;;;5069978;28;20569;-62
2022/01/08 07:28:18;;;;;;;1.70;1.60;;;;;;;;;;5054030;28;20210;-61
2022/01/08 07:30:45;;;;;;;3.13;1.90;;;;;;;;;;5059551;28;20301;-64
2022/01/08 07:33:13;;;;;;;2.07;1.97;;;;;;;;;;5076093;27;20206;-64
2022/01/08 07:35:41;;;;;;;1.80;1.70;;;;;;;;;;5049162;28;20707;-61
2022/01/08 07:38:08;;;;;;;1.93;1.83;;;;;;;;;;5056876;28;20255;-63
2022/01/08 07:40:36;;;;;;;1.80;1.70;;;;;;;;;;5047584;28;20238;-63
2022/01/08 07:43:04;;;;;;;1.90;1.80;;;;;;;;;;5049598;28;20201;-63
2022/01/08 07:45:31;;;;;;;2.20;2.00;;;;;;;;;;5044197;28;20202;-63
2022/01/08 07:47:59;;;;;;;2.30;2.20;;;;;;;;;;5043180;28;20275;-63
2022/01/08 07:50:26;;;;;;;2.10;2.00;;;;;;;;;;5048009;28;20226;-63
2022/01/08 07:52:54;;;;;;;2.23;2.03;;;;;;;;;;5046543;28;20203;-61
2022/01/08 07:55:21;;;;;;;2.33;2.13;;;;;;;;;;5052913;28;20773;-62
2022/01/08 07:57:48;;;;;;;3.23;2.13;;;;;;;;;;5048594;28;20225;-61
2022/01/08 08:00:16;;;;;;;2.23;2.10;;;;;;;;;;5054121;28;20209;-61
2022/01/08 08:02:44;;;;;;;3.03;2.30;;;;;;;;;;5047091;28;20215;-62
2022/01/08 08:05:12;;;;;;;2.40;2.30;;;;;;;;;;5045721;28;20221;-62
2022/01/08 08:07:40;;;;;;;2.83;2.63;;;;;;;;;;5041879;28;20722;-62
2022/01/08 08:10:13;;;;;;;2.53;2.30;;;;;;;;;;5045309;28;20247;-61
2022/01/08 08:12:41;;;;;;;2.37;2.23;;;;;;;;;;5046474;28;20212;-63
2022/01/08 08:15:09;;;;;;;2.10;2.00;;;;;;;;;;5044526;28;20233;-61
2022/01/08 08:17:37;;;;;;;2.63;2.33;;;;;;;;;;5043771;28;20230;-62
2022/01/08 08:20:05;;;;;;;3.30;2.10;;;;;;;;;;5047426;28;20195;-63
2022/01/08 08:22:32;;;;;;;2.30;2.10;;;;;;;;;;5070654;27;20218;-62
2022/01/08 08:25:00;;;;;;;1.90;1.80;;;;;;;;;;5048202;28;20724;-62
2022/01/08 08:27:29;;;;;;;3.00;1.80;;;;;;;;;;5043831;28;20230;-62
2022/01/08 08:29:57;;;;;;;1.47;1.47;;;;;;;;;;5044833;28;20272;-62
2022/01/08 08:32:24;;;;;;;1.50;1.40;;;;;;;;;;5058750;28;20276;-61
2022/01/08 08:34:52;;;;;;;1.90;1.40;;;;;;;;;;5042320;28;20234;-62
2022/01/08 08:37:20;;;;;;;1.40;1.30;;;;;;;;;;5045540;28;22026;-61
2022/01/08 08:39:47;;;;;;;1.50;1.40;;;;;;;;;;5064064;27;20203;-63
2022/01/08 08:42:15;;;;;;;1.70;1.60;;;;;;;;;;5058646;28;23183;-62
2022/01/08 08:44:43;;;;;;;1.53;1.40;;;;;;;;;;5044125;28;20423;-63
2022/01/08 08:47:11;;;;;;;1.70;1.60;;;;;;;;;;5040048;28;20316;-61
2022/01/08 08:49:38;;;;;;;1.70;1.60;;;;;;;;;;5044382;28;20557;-61
2022/01/08 08:52:06;;;;;;;1.30;1.30;;;;;;;;;;5068719;27;20209;-60
2022/01/08 08:54:33;;;;;;;4.50;1.87;;;;;;;;;;5049453;28;20225;-63
2022/01/08 08:57:00;;;;;;;3.73;3.10;;;;;;;;;;5043706;28;25121;-61
2022/01/08 08:59:28;;;;;;;5.07;2.83;;;;;;;;;;5045928;28;20224;-63
2022/01/08 09:01:56;;;;;;;5.60;3.93;;;;;;;;;;5071021;28;21163;-62
2022/01/08 09:04:23;;;;;;;2.77;2.53;;;;;;;;;;5055403;28;20215;-64
2022/01/08 09:06:51;;;;;;;3.10;1.90;;;;;;;;;;5072959;28;20240;-62
2022/01/08 09:09:19;;;;;;;3.20;2.90;;;;;;;;;;5057246;28;20215;-62
2022/01/08 09:11:46;;;;;;;2.20;2.00;;;;;;;;;;5046231;28;21154;-64
2022/01/08 09:14:13;;;;;;;2.00;1.80;;;;;;;;;;5043858;28;20779;-62
2022/01/08 09:16:45;;;;;;;1.87;1.77;;;;;;;;;;5052823;28;20366;-62
2022/01/08 09:19:13;;;;;;;1.73;1.70;;;;;;;;;;5054457;28;20682;-62
2022/01/08 09:21:41;;;;;;;2.50;2.30;;;;;;;;;;5045765;28;20211;-62
2022/01/08 09:24:09;;;;;;;2.07;1.90;;;;;;;;;;5074773;28;20274;-62
2022/01/08 09:26:39;;;;;;;2.97;2.20;;;;;;;;;;5049590;28;20265;-62
2022/01/08 09:29:07;;;;;;;1.93;1.83;;;;;;;;;;5054959;28;20215;-63
2022/01/08 09:31:34;;;;;;;2.33;2.00;;;;;;;;;;5042499;28;20204;-61
2022/01/08 09:34:02;;;;;;;2.47;2.37;;;;;;;;;;5042215;28;20204;-63
2022/01/08 09:36:29;;;;;;;6.00;4.03;;;;;;;;;;5067372;28;20230;-61
2022/01/08 09:38:56;;;;;;;2.83;2.43;;;;;;;;;;5074101;28;20207;-62
2022/01/08 09:41:27;;;;;;;2.60;2.40;;;;;;;;;;5074127;28;20219;-62
2022/01/08 09:43:54;;;;;;;4.57;2.23;;;;;;;;;;5053823;28;20245;-62
2022/01/08 09:46:22;;;;;;;2.67;2.07;;;;;;;;;;5057227;28;20313;-61
2022/01/08 09:48:49;;;;;;;2.17;1.87;;;;;;;;;;5058554;28;20621;-62
2022/01/08 09:51:17;;;;;;;1.80;1.70;;;;;;;;;;5059434;28;21516;-62
2022/01/08 09:53:45;;;;;;;1.80;1.70;;;;;;;;;;5083545;28;20202;-62
2022/01/08 09:56:13;;;;;;;2.63;1.90;;;;;;;;;;5067851;28;20447;-63
2022/01/08 09:58:40;;;;;;;3.73;1.67;;;;;;;;;;5058841;28;20264;-63
2022/01/08 10:01:23;;;;;;;2.53;1.73;;;;;;;;;;5054744;28;20217;-62
2022/01/08 10:03:50;;;;;;;2.43;1.70;;;;;;;;;;5056524;28;20218;-62
2022/01/08 10:06:22;;;;;;;2.37;2.17;;;;;;;;;;5077637;28;20236;-62
2022/01/08 10:08:50;;;;;;;1.63;1.60;;;;;;;;;;5069372;28;20687;-63
2022/01/08 10:11:18;;;;;;;1.70;1.53;;;;;;;;;;5057564;28;20662;-62
2022/01/08 10:13:48;;;;;;;1.73;1.60;;;;;;;;;;5070265;28;20205;-62
2022/01/08 10:19:04;;;;;;;1.70;1.60;;;;;;;;;;5080444;28;20620;-62
2022/01/08 10:21:34;;;;;;;1.50;1.40;;;;;;;;;;5077066;28;20205;-62
2022/01/08 10:24:08;;;;;;;3.47;2.33;;;;;;;;;;5088567;28;20323;-62
2022/01/08 10:26:37;;;;;;;2.43;1.80;;;;;;;;;;5057966;28;20291;-62
2022/01/08 10:29:15;;;;;;;6.93;4.53;;;;;;;;;;5090486;28;20205;-62
2022/01/08 10:31:43;;;;;;;3.43;2.80;;;;;;;;;;5061146;28;20258;-62
2022/01/08 10:34:21;;;;;;;1.77;1.67;;;;;;;;;;5100988;27;21841;-62
2022/01/08 10:36:59;;;;;;;2.10;1.60;;;;;;;;;;5068512;28;23914;-62
2022/01/08 10:39:28;;;;;;;2.87;1.40;;;;;;;;;;5072439;28;20214;-63
2022/01/08 10:41:57;;;;;;;2.23;2.03;;;;;;;;;;5090472;27;20264;-63
2022/01/08 10:44:25;;;;;;;4.13;1.83;;;;;;;;;;5078468;28;20262;-63
2022/01/08 10:47:25;;;;;;;1.80;1.70;;;;;;;;;;5095223;27;20775;-62
2022/01/08 10:50:06;;;;;;;6.93;4.20;;;;;;;;;;5039632;28;20211;-63
2022/01/08 10:52:46;;;;;;;1.50;1.40;;;;;;;;;;5071958;28;20285;-62
2022/01/08 10:55:14;;;;;;;2.00;1.40;;;;;;;;;;5064287;28;20227;-62
2022/01/08 10:57:42;;;;;;;1.97;1.73;;;;;;;;;;5072694;28;20575;-62
2022/01/08 11:00:14;;;;;;;5.83;2.00;;;;;;;;;;5068379;28;20196;-63
2022/01/08 11:02:43;;;;;;;2.10;1.53;;;;;;;;;;5068804;28;20215;-63
2022/01/08 11:05:11;;;;;;;2.27;1.33;;;;;;;;;;5107785;27;20208;-62
2022/01/08 11:07:40;;;;;;;1.47;1.30;;;;;;;;;;5067074;28;20233;-62
2022/01/08 11:10:17;;;;;;;3.03;1.50;;;;;;;;;;5094343;27;20271;-63
2022/01/08 11:12:46;;;;;;;2.00;1.43;;;;;;;;;;5100547;27;20213;-62
2022/01/08 11:17:45;;;;;;;3.87;2.60;;;;;;;;;;5080673;28;20230;-62
2022/01/08 11:20:14;;;;;;;8.33;4.20;;;;;;;;;;5074577;28;20301;-62
2022/01/08 11:22:46;;;;;;;7.00;2.83;;;;;;;;;;5080700;28;20259;-63
2022/01/08 11:25:15;;;;;;;6.40;3.27;;;;;;;;;;5062933;28;20213;-63
2022/01/08 11:27:45;;;;;;;3.83;1.90;;;;;;;;;;5069538;28;20233;-62
2022/01/08 11:30:19;;;;;;;22.23;9.47;;;;;;;;;;5081371;28;20206;-63
2022/01/08 11:32:48;;;;;;;8.47;4.37;;;;;;;;;;5071400;28;20201;-62
2022/01/08 11:35:35;;;;;;;4.23;2.40;;;;;;;;;;5066450;28;20746;-61
2022/01/08 11:38:04;;;;;;;26.57;10.10;;;;;;;;;;5088048;28;20228;-61
2022/01/08 11:40:32;;;;;;;9.10;4.07;;;;;;;;;;5070666;28;20193;-62
2022/01/08 11:43:02;;;;;;;18.13;9.13;;;;;;;;;;5063885;28;20209;-61
2022/01/08 11:45:34;;;;;;;9.43;5.57;;;;;;;;;;5064476;28;20223;-62
2022/01/08 11:48:03;;;;;;;5.90;3.57;;;;;;;;;;5098057;27;20226;-61
2022/01/08 11:50:32;;;;;;;2.40;1.90;;;;;;;;;;5101307;27;20212;-61
2022/01/08 11:53:14;;;;;;;5.47;3.80;;;;;;;;;;5094678;27;20208;-62
2022/01/08 11:55:45;;;;;;;4.73;2.90;;;;;;;;;;5085213;28;20274;-62
2022/01/08 11:58:14;;;;;;;2.97;2.10;;;;;;;;;;5096070;27;20205;-62
2022/01/08 12:01:02;;;;;;;3.93;2.63;;;;;;;;;;5070994;28;20614;-63
2022/01/08 12:03:32;;;;;;;3.90;2.80;;;;;;;;;;5061209;28;20213;-62
2022/01/08 12:06:19;;;;;;;5.37;3.90;;;;;;;;;;5068324;28;20220;-61
2022/01/08 12:08:59;;;;;;;6.10;3.23;;;;;;;;;;5095243;27;20227;-62
2022/01/08 12:11:31;;;;;;;2.93;2.17;;;;;;;;;;5088652;27;20292;-64
2022/01/08 12:14:08;;;;;;;18.20;9.87;;;;;;;;;;5071137;28;20208;-62
2022/01/08 12:16:37;;;;;;;5.13;2.93;;;;;;;;;;5082865;28;20305;-63
2022/01/08 12:19:05;;;;;;;10.83;6.23;;;;;;;;;;5097731;27;20251;-62
2022/01/08 12:21:34;;;;;;;3.30;2.00;;;;;;;;;;5062674;28;20628;-61
2022/01/08 12:24:20;;;;;;;16.63;8.73;;;;;;;;;;5091155;27;20743;-62
2022/01/08 12:26:47;;;;;;;4.93;3.27;;;;;;;;;;5062465;28;20241;-62
2022/01/08 12:29:34;;;;;;;4.43;3.00;;;;;;;;;;5064497;28;20246;-62
2022/01/08 12:32:21;;;;;;;1.87;1.67;;;;;;;;;;5093301;27;20231;-62
2022/01/08 12:34:50;;;;;;;1.50;1.40;;;;;;;;;;5062424;28;20227;-62
2022/01/08 12:37:34;;;;;;;1.73;1.33;;;;;;;;;;5096535;27;20333;-63
2022/01/08 12:40:01;;;;;;;3.63;1.40;;;;;;;;;;5095189;27;20193;-62
2022/01/08 12:42:29;;;;;;;1.90;1.67;;;;;;;;;;5055778;28;20215;-62
2022/01/08 12:45:04;;;;;;;1.60;1.50;;;;;;;;;;5087202;27;20237;-62
2022/01/08 12:47:38;;;;;;;1.90;1.43;;;;;;;;;;5082860;27;23696;-62
2022/01/08 12:50:25;;;;;;;1.83;1.73;;;;;;;;;;5072930;28;20216;-62
2022/01/08 12:53:09;;;;;;;2.63;1.90;;;;;;;;;;5094646;27;20217;-62
2022/01/08 12:55:36;;;;;;;2.40;2.07;;;;;;;;;;5096413;27;20221;-62
2022/01/08 12:58:33;;;;;;;2.23;2.03;;;;;;;;;;5050437;28;20232;-62
2022/01/08 13:01:03;;;;;;;5.60;3.87;;;;;;;;;;5030987;28;20208;-63
2022/01/08 13:03:32;;;;;;;2.53;2.20;;;;;;;;;;5058337;28;20284;-62
2022/01/08 13:06:01;;;;;;;1.60;1.50;;;;;;;;;;5050802;28;20208;-62
2022/01/08 13:08:30;;;;;;;1.53;1.37;;;;;;;;;;5066724;28;20208;-61
2022/01/08 13:11:00;;;;;;;2.37;1.60;;;;;;;;;;5054295;28;20213;-62
2022/01/08 13:13:41;;;;;;;1.97;1.80;;;;;;;;;;5072259;28;20204;-63
2022/01/08 13:16:11;;;;;;;3.20;1.60;;;;;;;;;;5055480;28;20303;-63
2022/01/08 13:18:48;;;;;;;3.37;2.60;;;;;;;;;;5043869;28;20205;-61
2022/01/08 13:21:16;;;;;;;2.00;1.80;;;;;;;;;;5053795;28;20202;-62
2022/01/08 13:23:44;;;;;;;2.30;2.10;;;;;;;;;;5053766;28;20201;-63
2022/01/08 13:26:12;;;;;;;1.60;1.50;;;;;;;;;;5058029;28;20220;-62
2022/01/08 13:28:41;;;;;;;2.83;2.57;;;;;;;;;;5062714;28;20737;-62
2022/01/08 13:31:41;;;;;;;6.70;5.00;;;;;;;;;;5052742;28;20635;-62
2022/01/08 13:34:09;;;;;;;5.30;4.17;;;;;;;;;;5067390;28;21932;-63
2022/01/08 13:36:50;;;;;;;2.13;1.80;;;;;;;;;;5083216;28;20248;-63
2022/01/08 13:39:25;;;;;;;7.43;5.57;;;;;;;;;;5052759;28;20221;-63
2022/01/08 13:42:04;;;;;;;8.13;6.63;;;;;;;;;;5062636;28;20226;-63
2022/01/08 13:44:31;;;;;;;3.27;2.70;;;;;;;;;;5064965;28;20850;-62
2022/01/08 13:46:59;;;;;;;2.13;1.97;;;;;;;;;;5064922;28;20225;-63
2022/01/08 13:49:27;;;;;;;1.70;1.53;;;;;;;;;;5094081;28;20260;-61
2022/01/08 13:51:56;;;;;;;1.57;1.47;;;;;;;;;;5061701;28;20227;-63
2022/01/08 13:54:34;;;;;;;2.50;2.30;;;;;;;;;;5060331;28;20631;-62
2022/01/08 13:57:14;;;;;;;2.83;2.20;;;;;;;;;;5073185;28;20225;-62
2022/01/08 13:59:42;;;;;;;1.97;1.87;;;;;;;;;;5063232;28;20627;-62
2022/01/08 14:02:10;;;;;;;2.00;1.90;;;;;;;;;;5063079;28;20204;-63
2022/01/08 14:04:39;;;;;;;3.67;2.13;;;;;;;;;;5061793;28;20206;-63
2022/01/08 14:07:07;;;;;;;2.47;2.17;;;;;;;;;;5053721;28;20233;-61
2022/01/08 14:09:34;;;;;;;4.47;3.97;;;;;;;;;;5066074;28;20206;-61
2022/01/08 14:12:09;;;;;;;1.40;1.30;;;;;;;;;;5073814;28;20257;-63
2022/01/08 14:14:40;;;;;;;4.97;3.17;;;;;;;;;;5088874;28;20685;-61
2022/01/08 14:17:15;;;;;;;5.70;4.20;;;;;;;;;;5064452;28;20236;-61
2022/01/08 14:19:43;;;;;;;3.00;2.70;;;;;;;;;;5069392;28;20213;-62
2022/01/08 14:22:12;;;;;;;2.40;1.20;;;;;;;;;;5099079;27;20291;-62
2022/01/08 14:24:41;;;;;;;1.20;1.10;;;;;;;;;;5066957;28;20978;-61
2022/01/08 14:27:13;;;;;;;1.10;1.10;;;;;;;;;;5070628;28;20252;-62
2022/01/08 14:29:42;;;;;;;1.30;1.20;;;;;;;;;;5105061;28;20213;-64
2022/01/08 14:32:10;;;;;;;1.20;1.20;;;;;;;;;;5070589;28;20224;-61
2022/01/08 14:34:45;;;;;;;1.80;1.40;;;;;;;;;;5101558;27;20204;-62
2022/01/08 14:37:16;;;;;;;1.20;1.20;;;;;;;;;;5095291;27;20597;-64
2022/01/08 14:39:45;;;;;;;1.17;1.13;;;;;;;;;;5080057;28;20269;-62
2022/01/08 14:42:15;;;;;;;1.57;1.47;;;;;;;;;;5068562;28;20203;-63
2022/01/08 14:44:59;;;;;;;1.57;1.17;;;;;;;;;;5075570;28;20197;-63
2022/01/08 14:47:30;;;;;;;1.37;1.10;;;;;;;;;;5084433;28;20232;-63
2022/01/08 14:49:57;;;;;;;1.20;1.20;;;;;;;;;;5071947;28;20204;-63
2022/01/08 14:52:25;;;;;;;1.27;1.27;;;;;;;;;;5063569;28;20204;-63
2022/01/08 14:54:53;;;;;;;1.20;1.20;;;;;;;;;;5097920;27;20204;-63
2022/01/08 14:57:20;;;;;;;1.73;1.63;;;;;;;;;;5063357;28;20298;-63
2022/01/08 14:59:48;;;;;;;1.60;1.50;;;;;;;;;;5069557;28;20204;-63
2022/01/08 15:02:15;;;;;;;2.33;1.60;;;;;;;;;;5063182;28;20570;-63
2022/01/08 15:04:43;;;;;;;1.73;1.43;;;;;;;;;;5063755;28;20193;-63
2022/01/08 15:07:13;;;;;;;4.63;3.77;;;;;;;;;;5064317;28;20281;-63
2022/01/08 15:09:40;;;;;;;2.77;2.57;;;;;;;;;;5105964;27;20221;-62
2022/01/08 15:12:08;;;;;;;2.77;2.57;;;;;;;;;;5102448;27;20201;-64
2022/01/08 15:14:36;;;;;;;3.83;3.47;;;;;;;;;;5081295;28;20235;-63
2022/01/08 15:17:05;;;;;;;6.60;5.83;;;;;;;;;;5069545;28;20241;-63
2022/01/08 15:19:33;;;;;;;10.80;7.63;;;;;;;;;;5100380;27;20210;-62
2022/01/08 15:22:01;;;;;;;7.07;4.60;;;;;;;;;;5072023;28;20261;-62